createdAt,value
2017-10-18T00:00:48.532Z,57.00
2017-10-18T00:03:14.609Z,55.97
2017-10-18T00:05:41.512Z,55.57
2017-10-18T00:08:07.623Z,57.93
2017-10-18T00:10:33.828Z,55.20
2017-10-18T00:13:00.033Z,58.30
2017-10-18T00:15:26.157Z,62.07
2017-10-18T00:17:52.298Z,56.50
2017-10-18T00:20:18.464Z,55.80
2017-10-18T00:22:44.576Z,57.73
2017-10-18T00:25:10.683Z,59.50
2017-10-18T00:27:37.635Z,64.20
2017-10-18T00:30:04.525Z,63.70
2017-10-18T00:32:30.697Z,60.47
2017-10-18T00:34:56.902Z,60.03
2017-10-18T00:37:22.993Z,62.20
2017-10-18T00:39:49.195Z,58.30
2017-10-18T00:42:15.382Z,59.93
2017-10-18T00:44:42.277Z,56.37
2017-10-18T00:47:08.420Z,56.83
2017-10-18T00:49:34.602Z,58.50
2017-10-18T00:52:00.800Z,54.37
2017-10-18T00:54:27.654Z,55.20
2017-10-18T00:56:53.812Z,55.63
2017-10-18T00:59:19.880Z,54.20
2017-10-18T01:01:46.059Z,57.43
2017-10-18T01:04:12.222Z,54.80
2017-10-18T01:06:38.340Z,54.00
2017-10-18T01:09:04.478Z,54.60
2017-10-18T01:11:30.587Z,53.87
2017-10-18T01:13:57.477Z,55.73
2017-10-18T01:16:23.596Z,55.00
2017-10-18T01:18:49.766Z,52.97
2017-10-18T01:21:15.917Z,52.90
2017-10-18T01:23:41.985Z,51.73
2017-10-18T01:26:08.182Z,49.37
2017-10-18T01:28:34.327Z,52.70
2017-10-18T01:31:00.542Z,53.63
2017-10-18T01:33:26.724Z,51.50
2017-10-18T01:35:53.166Z,48.70
2017-10-18T01:38:19.252Z,48.30
2017-10-18T01:40:45.420Z,51.70
2017-10-18T01:43:11.524Z,52.70
2017-10-18T01:45:38.344Z,50.70
2017-10-18T01:48:04.546Z,50.80
2017-10-18T01:50:30.675Z,53.40
2017-10-18T01:52:56.863Z,52.20
2017-10-18T01:55:23.060Z,54.30
2017-10-18T01:57:49.134Z,54.83
2017-10-18T02:00:15.230Z,56.90
2017-10-18T02:02:41.388Z,54.03
2017-10-18T02:05:07.500Z,55.30
2017-10-18T02:07:33.633Z,54.60
2017-10-18T02:09:59.788Z,53.90
2017-10-18T02:12:26.002Z,58.40
2017-10-18T02:14:52.974Z,57.23
2017-10-18T02:17:19.140Z,61.00
2017-10-18T02:19:45.205Z,59.73
2017-10-18T02:22:11.387Z,58.80
2017-10-18T02:24:37.550Z,62.23
2017-10-18T02:27:03.727Z,59.10
2017-10-18T02:29:29.953Z,56.93
2017-10-18T02:31:56.079Z,60.30
2017-10-18T02:34:22.176Z,59.47
2017-10-18T02:36:48.335Z,59.70
2017-10-18T02:39:14.477Z,61.60
2017-10-18T02:41:40.604Z,59.03
2017-10-18T02:44:06.686Z,57.27
2017-10-18T02:46:32.818Z,57.23
2017-10-18T02:48:58.911Z,64.17
2017-10-18T02:51:25.082Z,60.20
2017-10-18T02:53:51.205Z,64.00
2017-10-18T02:56:17.328Z,59.70
2017-10-18T02:58:43.456Z,61.20
2017-10-18T03:01:09.624Z,73.30
2017-10-18T03:03:35.738Z,63.67
2017-10-18T03:06:01.804Z,63.90
2017-10-18T03:08:27.940Z,64.93
2017-10-18T03:10:54.050Z,69.57
2017-10-18T03:13:20.176Z,67.80
2017-10-18T03:15:47.059Z,64.50
2017-10-18T03:18:13.212Z,69.27
2017-10-18T03:20:39.289Z,70.50
2017-10-18T03:23:05.406Z,61.57
2017-10-18T03:25:31.705Z,65.43
2017-10-18T03:27:57.864Z,70.33
2017-10-18T03:30:23.986Z,65.93
2017-10-18T03:32:50.096Z,62.43
2017-10-18T03:35:16.968Z,63.10
2017-10-18T03:37:43.140Z,64.00
2017-10-18T03:40:09.221Z,65.00
2017-10-18T03:42:35.295Z,68.27
2017-10-18T03:45:01.400Z,63.07
2017-10-18T03:47:28.210Z,61.13
2017-10-18T03:49:54.342Z,60.77
2017-10-18T03:52:20.453Z,60.43
2017-10-18T03:54:46.533Z,58.30
2017-10-18T03:57:12.597Z,62.37
2017-10-18T03:59:39.448Z,61.50
2017-10-18T04:02:05.534Z,60.70
2017-10-18T04:04:31.657Z,64.27
2017-10-18T04:06:57.752Z,68.00
2017-10-18T04:09:23.935Z,62.00
2017-10-18T04:11:50.078Z,60.00
2017-10-18T04:14:16.208Z,60.80
2017-10-18T04:16:42.340Z,61.67
2017-10-18T04:19:08.496Z,57.40
2017-10-18T04:21:34.653Z,60.27
2017-10-18T04:24:00.775Z,60.00
2017-10-18T04:26:26.862Z,64.30
2017-10-18T04:28:53.078Z,63.17
2017-10-18T04:31:19.195Z,63.97
2017-10-18T04:33:45.325Z,62.27
2017-10-18T04:36:11.493Z,66.33
2017-10-18T04:38:37.602Z,63.90
2017-10-18T04:41:03.744Z,58.50
2017-10-18T04:43:29.915Z,58.10
2017-10-18T04:45:56.041Z,63.70
2017-10-18T04:48:22.133Z,59.93
2017-10-18T04:50:49.040Z,62.80
2017-10-18T04:53:15.174Z,61.20
2017-10-18T04:55:41.267Z,60.27
2017-10-18T04:58:07.386Z,60.07
2017-10-18T05:00:33.473Z,61.97
2017-10-18T05:02:59.603Z,59.70
2017-10-18T05:05:25.760Z,61.97
2017-10-18T05:07:51.868Z,59.97
2017-10-18T05:10:17.992Z,60.67
2017-10-18T05:12:44.945Z,59.07
2017-10-18T05:15:11.829Z,61.20
2017-10-18T05:17:37.971Z,58.67
2017-10-18T05:20:04.080Z,56.20
2017-10-18T05:22:30.945Z,57.53
2017-10-18T05:24:57.045Z,57.83
2017-10-18T05:27:23.188Z,58.03
2017-10-18T05:29:49.269Z,56.43
2017-10-18T05:32:15.346Z,55.13
2017-10-18T05:34:41.486Z,55.63
2017-10-18T05:37:07.557Z,53.17
2017-10-18T05:39:34.397Z,52.70
2017-10-18T05:42:00.508Z,53.20
2017-10-18T05:44:26.584Z,52.40
2017-10-18T05:46:53.392Z,52.40
2017-10-18T05:49:19.491Z,50.87
2017-10-18T05:51:46.338Z,54.97
2017-10-18T05:54:13.186Z,56.07
2017-10-18T05:56:39.325Z,56.10
2017-10-18T05:59:06.157Z,55.67
2017-10-18T06:01:32.538Z,54.33
2017-10-18T06:03:58.782Z,52.30
2017-10-18T06:06:24.863Z,55.20
2017-10-18T06:08:51.458Z,53.47
2017-10-18T06:11:18.316Z,54.87
2017-10-18T06:13:45.124Z,50.30
2017-10-18T06:16:11.269Z,49.23
2017-10-18T06:18:37.397Z,48.77
2017-10-18T06:21:03.483Z,48.07
2017-10-18T06:23:30.325Z,45.87
2017-10-18T06:25:57.190Z,46.50
2017-10-18T06:28:24.078Z,46.70
2017-10-18T06:30:50.159Z,46.63
2017-10-18T06:33:16.261Z,45.60
2017-10-18T06:35:42.429Z,42.73
2017-10-18T06:38:08.577Z,45.63
2017-10-18T06:40:34.722Z,46.53
2017-10-18T06:43:00.830Z,44.37
2017-10-18T06:45:26.934Z,47.67
2017-10-18T06:47:53.062Z,48.43
2017-10-18T06:50:19.173Z,47.10
2017-10-18T06:52:45.290Z,47.23
2017-10-18T06:55:11.897Z,46.50
2017-10-18T06:57:38.039Z,45.13
2017-10-18T07:00:04.129Z,48.33
2017-10-18T07:02:30.245Z,45.67
2017-10-18T07:04:56.323Z,45.00
2017-10-18T07:07:23.144Z,46.10
2017-10-18T07:09:49.306Z,46.07
2017-10-18T07:12:16.145Z,44.70
2017-10-18T07:14:42.247Z,45.20
2017-10-18T07:17:08.317Z,46.60
2017-10-18T07:19:34.426Z,46.00
2017-10-18T07:22:00.519Z,44.43
2017-10-18T07:24:26.606Z,45.63
2017-10-18T07:26:52.706Z,46.90
2017-10-18T07:29:18.793Z,44.83
2017-10-18T07:31:44.894Z,49.27
2017-10-18T07:34:11.133Z,46.33
2017-10-18T07:36:37.452Z,45.50
2017-10-18T07:39:04.390Z,48.83
2017-10-18T07:41:30.529Z,48.70
2017-10-18T07:43:57.476Z,47.33
2017-10-18T07:46:23.836Z,45.33
2017-10-18T07:48:50.392Z,43.30
2017-10-18T07:51:16.672Z,44.37
2017-10-18T07:53:42.902Z,45.67
2017-10-18T07:56:09.155Z,43.87
2017-10-18T07:58:35.383Z,43.30
2017-10-18T08:01:01.466Z,44.10
2017-10-18T08:03:27.764Z,49.40
2017-10-18T08:05:54.040Z,43.97
2017-10-18T08:08:20.337Z,42.60
2017-10-18T08:10:46.618Z,44.57
2017-10-18T08:13:13.056Z,45.23
2017-10-18T08:15:39.272Z,43.37
2017-10-18T08:18:05.424Z,45.47
2017-10-18T08:20:31.774Z,43.07
2017-10-18T08:22:58.024Z,44.17
2017-10-18T08:25:24.222Z,44.10
2017-10-18T08:27:51.282Z,44.00
2017-10-18T08:30:17.662Z,43.83
2017-10-18T08:32:43.982Z,44.90
2017-10-18T08:35:10.431Z,46.70
2017-10-18T08:37:36.569Z,47.03
2017-10-18T08:40:02.887Z,43.70
2017-10-18T08:42:30.012Z,44.50
2017-10-18T08:44:56.438Z,43.80
2017-10-18T08:47:22.645Z,41.73
2017-10-18T08:49:49.142Z,41.60
2017-10-18T08:52:15.553Z,42.47
2017-10-18T08:54:41.632Z,41.33
2017-10-18T08:57:07.731Z,44.17
2017-10-18T08:59:33.813Z,47.50
2017-10-18T09:01:59.921Z,42.40
2017-10-18T09:04:26.034Z,39.27
2017-10-18T09:06:52.095Z,41.07
2017-10-18T09:09:18.157Z,40.70
2017-10-18T09:11:44.360Z,41.33
2017-10-18T09:14:10.443Z,41.47
2017-10-18T09:16:36.543Z,41.53
2017-10-18T09:19:02.730Z,40.83
2017-10-18T09:21:28.801Z,41.93
2017-10-18T09:24:01.878Z,42.73
2017-10-18T09:26:28.723Z,41.77
2017-10-18T09:28:54.813Z,43.80
2017-10-18T09:31:21.029Z,42.63
2017-10-18T09:33:47.198Z,38.77
2017-10-18T09:36:13.308Z,41.83
2017-10-18T09:38:39.363Z,38.60
2017-10-18T09:41:05.511Z,39.60
2017-10-18T09:43:31.596Z,37.27
2017-10-18T09:45:58.412Z,39.60
2017-10-18T09:48:24.518Z,38.40
2017-10-18T09:50:50.651Z,37.70
2017-10-18T09:53:16.721Z,40.17
2017-10-18T09:55:42.830Z,48.40
2017-10-18T09:58:08.947Z,38.93
2017-10-18T10:00:35.777Z,35.90
2017-10-18T10:03:01.895Z,41.37
2017-10-18T10:05:27.990Z,36.97
2017-10-18T10:07:54.081Z,30.67
2017-10-18T10:10:20.188Z,31.70
2017-10-18T10:12:46.285Z,31.43
2017-10-18T10:15:13.110Z,28.97
2017-10-18T10:17:39.209Z,32.73
2017-10-18T10:20:05.314Z,33.50
2017-10-18T10:22:32.196Z,30.90
2017-10-18T10:24:58.322Z,30.53
2017-10-18T10:27:24.391Z,30.70
2017-10-18T10:29:50.536Z,30.60
2017-10-18T10:32:16.783Z,27.90
2017-10-18T10:34:42.854Z,28.27
2017-10-18T10:37:08.973Z,27.43
2017-10-18T10:39:35.130Z,29.37
2017-10-18T10:42:01.197Z,29.70
2017-10-18T10:44:27.290Z,29.30
2017-10-18T10:46:53.439Z,29.23
2017-10-18T10:49:19.501Z,31.70
2017-10-18T10:51:45.575Z,34.30
2017-10-18T10:54:11.679Z,25.40
2017-10-18T10:56:37.740Z,30.60
2017-10-18T10:59:03.807Z,27.60
2017-10-18T11:01:29.916Z,30.87
2017-10-18T11:03:55.996Z,28.50
2017-10-18T11:06:22.837Z,28.23
2017-10-18T11:08:48.951Z,31.97
2017-10-18T11:11:15.072Z,29.13
2017-10-18T11:13:41.222Z,26.97
2017-10-18T11:16:07.355Z,27.50
2017-10-18T11:18:33.456Z,28.27
2017-10-18T11:21:00.296Z,33.47
2017-10-18T11:23:27.153Z,31.20
2017-10-18T11:25:54.026Z,26.10
2017-10-18T11:28:20.122Z,26.53
2017-10-18T11:30:46.236Z,28.47
2017-10-18T11:33:12.380Z,29.77
2017-10-18T11:35:38.483Z,29.50
2017-10-18T11:38:04.603Z,27.43
2017-10-18T11:40:31.536Z,25.80
2017-10-18T11:42:57.631Z,27.67
2017-10-18T11:45:23.778Z,27.60
2017-10-18T11:47:49.899Z,35.23
2017-10-18T11:50:15.976Z,36.10
2017-10-18T11:52:42.062Z,36.17
2017-10-18T11:55:08.923Z,29.40
2017-10-18T11:57:35.021Z,29.67
2017-10-18T12:00:01.119Z,24.40
2017-10-18T12:02:27.253Z,27.87
2017-10-18T12:04:53.350Z,31.70
2017-10-18T12:07:20.188Z,25.07
2017-10-18T12:09:46.301Z,26.10
2017-10-18T12:12:12.383Z,26.53
2017-10-18T12:14:39.208Z,28.10
2017-10-18T12:17:05.332Z,26.60
2017-10-18T12:19:31.414Z,25.47
2017-10-18T12:21:58.243Z,23.10
2017-10-18T12:24:24.358Z,22.07
2017-10-18T12:26:50.440Z,20.00
2017-10-18T12:29:16.535Z,25.00
2017-10-18T12:31:42.642Z,22.73
2017-10-18T12:34:08.782Z,20.70
2017-10-18T12:36:34.893Z,20.47
2017-10-18T12:39:01.034Z,23.70
2017-10-18T12:41:27.864Z,22.37
2017-10-18T12:43:53.958Z,31.77
2017-10-18T12:46:20.122Z,26.17
2017-10-18T12:48:46.198Z,20.27
2017-10-18T12:51:12.266Z,22.30
2017-10-18T12:53:38.368Z,21.87
2017-10-18T12:56:04.463Z,24.63
2017-10-18T12:58:30.569Z,25.53
2017-10-18T13:00:57.457Z,23.57
2017-10-18T13:03:23.599Z,26.27
2017-10-18T13:05:49.746Z,34.97
2017-10-18T13:08:15.860Z,24.30
2017-10-18T13:10:41.954Z,24.63
2017-10-18T13:13:08.040Z,24.40
2017-10-18T13:15:34.226Z,24.07
2017-10-18T13:18:00.378Z,22.50
2017-10-18T13:20:27.197Z,22.10
2017-10-18T13:22:53.303Z,19.00
2017-10-18T13:25:19.396Z,20.60
2017-10-18T13:27:45.478Z,20.83
2017-10-18T13:30:11.578Z,25.27
2017-10-18T13:32:38.396Z,22.93
2017-10-18T13:35:04.513Z,20.43
2017-10-18T13:37:30.704Z,22.00
2017-10-18T13:39:56.790Z,21.00
2017-10-18T13:42:22.876Z,23.60
2017-10-18T13:44:48.977Z,20.87
2017-10-18T13:47:15.041Z,20.07
2017-10-18T13:49:41.226Z,22.00
2017-10-18T13:52:07.330Z,21.53
2017-10-18T13:54:33.413Z,24.17
2017-10-18T13:56:59.504Z,24.70
2017-10-18T13:59:26.385Z,25.53
2017-10-18T14:01:52.484Z,26.60
2017-10-18T14:04:18.583Z,27.60
2017-10-18T14:06:44.705Z,27.37
2017-10-18T14:09:10.776Z,28.70
2017-10-18T14:11:36.874Z,26.00
2017-10-18T14:14:02.995Z,38.87
2017-10-18T14:16:29.074Z,26.63
2017-10-18T14:18:55.242Z,26.17
2017-10-18T14:21:21.390Z,31.10
2017-10-18T14:23:47.495Z,23.37
2017-10-18T14:26:13.595Z,28.27
2017-10-18T14:28:39.721Z,23.43
2017-10-18T14:31:06.563Z,25.37
2017-10-18T14:33:32.771Z,26.50
2017-10-18T14:35:58.938Z,23.70
2017-10-18T14:38:25.275Z,21.30
2017-10-18T14:40:51.369Z,37.30
2017-10-18T14:43:17.500Z,29.67
2017-10-18T14:45:43.586Z,20.80
2017-10-18T14:48:09.667Z,18.17
2017-10-18T14:50:35.777Z,22.40
2017-10-18T14:53:01.903Z,22.57
2017-10-18T14:55:27.995Z,26.50
2017-10-18T14:57:54.778Z,20.90
2017-10-18T15:00:20.877Z,24.80
2017-10-18T15:02:46.963Z,22.57
2017-10-18T15:05:13.391Z,25.50
2017-10-18T15:07:39.960Z,21.20
2017-10-18T15:10:06.797Z,22.53
2017-10-18T15:12:33.968Z,20.10
2017-10-18T15:15:00.070Z,18.23
2017-10-18T15:17:26.548Z,19.60
2017-10-18T15:19:52.779Z,22.87
2017-10-18T15:22:18.857Z,20.63
2017-10-18T15:24:45.721Z,21.07
2017-10-18T15:27:12.578Z,23.30
2017-10-18T15:29:38.671Z,27.50
2017-10-18T15:32:04.817Z,28.90
2017-10-18T15:34:30.964Z,29.43
2017-10-18T15:36:57.078Z,24.67
2017-10-18T15:39:23.198Z,26.77
2017-10-18T15:41:49.318Z,28.07
2017-10-18T15:44:15.409Z,28.67
2017-10-18T15:46:41.488Z,30.60
2017-10-18T15:49:08.346Z,33.53
2017-10-18T15:51:34.458Z,31.80
2017-10-18T15:54:00.546Z,32.23
2017-10-18T15:56:26.679Z,29.03
2017-10-18T15:58:52.758Z,29.70
2017-10-18T16:01:18.867Z,34.80
2017-10-18T16:03:45.000Z,35.27
2017-10-18T16:06:11.090Z,47.07
2017-10-18T16:08:37.157Z,36.93
2017-10-18T16:11:03.309Z,33.80
2017-10-18T16:13:29.505Z,36.50
2017-10-18T16:15:55.611Z,32.70
2017-10-18T16:18:21.732Z,39.23
2017-10-18T16:20:47.823Z,37.20
2017-10-18T16:23:13.942Z,39.80
2017-10-18T16:25:40.082Z,41.87
2017-10-18T16:28:06.167Z,35.00
2017-10-18T16:30:32.381Z,35.43
2017-10-18T16:32:58.768Z,35.97
2017-10-18T16:35:24.885Z,38.60
2017-10-18T16:37:51.005Z,37.87
2017-10-18T16:40:17.137Z,39.13
2017-10-18T16:42:43.977Z,38.20
2017-10-18T16:45:10.065Z,39.73
2017-10-18T16:47:36.440Z,39.40
2017-10-18T16:50:03.348Z,38.23
2017-10-18T16:52:29.468Z,44.10
2017-10-18T16:54:56.370Z,38.90
2017-10-18T16:57:22.490Z,35.93
2017-10-18T16:59:48.792Z,38.00
2017-10-18T17:02:14.911Z,34.87
2017-10-18T17:04:41.050Z,36.60
2017-10-18T17:07:07.175Z,33.70
2017-10-18T17:09:33.342Z,34.00
2017-10-18T17:11:59.420Z,34.97
2017-10-18T17:14:25.542Z,35.53
2017-10-18T17:16:51.696Z,37.40
2017-10-18T17:19:17.794Z,33.43
2017-10-18T17:21:43.901Z,32.43
2017-10-18T17:24:09.988Z,35.97
2017-10-18T17:26:36.869Z,35.03
2017-10-18T17:29:06.081Z,32.73
2017-10-18T17:31:32.251Z,32.37
2017-10-18T17:33:58.543Z,30.77
2017-10-18T17:36:24.734Z,41.03
2017-10-18T17:38:50.954Z,42.07
2017-10-18T17:41:17.257Z,40.20
2017-10-18T17:43:44.134Z,35.90
2017-10-18T17:46:10.234Z,48.83
2017-10-18T17:48:36.666Z,55.17
2017-10-18T17:51:04.070Z,37.13
2017-10-18T17:53:30.551Z,36.80
2017-10-18T17:55:56.633Z,34.33
2017-10-18T17:58:22.717Z,31.50
2017-10-18T18:00:48.839Z,48.03
2017-10-18T18:03:15.025Z,40.40
2017-10-18T18:05:41.208Z,33.80
2017-10-18T18:08:07.315Z,33.50
2017-10-18T18:10:33.559Z,33.93
2017-10-18T18:12:59.681Z,35.07
2017-10-18T18:15:25.796Z,33.93
2017-10-18T18:17:51.947Z,33.23
2017-10-18T18:20:18.026Z,97.97
2017-10-18T18:22:44.968Z,38.27
2017-10-18T18:25:11.160Z,42.40
2017-10-18T18:27:37.252Z,37.13
2017-10-18T18:30:04.121Z,35.00
2017-10-18T18:32:31.860Z,38.13
2017-10-18T18:34:57.988Z,39.67
2017-10-18T18:37:24.118Z,45.60
2017-10-18T18:39:50.522Z,44.07
2017-10-18T18:42:17.384Z,46.87
2017-10-18T18:44:44.392Z,49.20
2017-10-18T18:49:43.658Z,38.33
2017-10-18T18:52:09.902Z,45.93
2017-10-18T18:54:36.742Z,44.20
2017-10-18T18:57:02.942Z,41.97
2017-10-18T18:59:29.058Z,39.63
2017-10-18T19:01:55.319Z,38.63
2017-10-18T19:04:21.440Z,37.93
2017-10-18T19:06:47.595Z,39.67
2017-10-18T19:09:13.691Z,35.00
2017-10-18T19:11:39.823Z,39.60
2017-10-18T19:14:05.982Z,34.90
2017-10-18T19:16:32.878Z,36.17
2017-10-18T19:18:58.980Z,35.40
2017-10-18T19:21:25.852Z,40.57
2017-10-18T19:23:52.100Z,37.30
2017-10-18T19:26:18.205Z,35.13
2017-10-18T19:28:44.357Z,34.50
2017-10-18T19:31:10.513Z,35.40
2017-10-18T19:33:36.599Z,34.33
2017-10-18T19:36:02.693Z,32.40
2017-10-18T19:38:28.818Z,34.57
2017-10-18T19:40:54.950Z,34.97
2017-10-18T19:43:21.049Z,35.83
2017-10-18T19:45:47.163Z,38.30
2017-10-18T19:48:13.245Z,35.80
2017-10-18T19:50:39.460Z,35.87
2017-10-18T19:53:05.594Z,34.53
2017-10-18T19:55:31.931Z,32.10
2017-10-18T19:57:58.112Z,32.23
2017-10-18T20:00:24.285Z,30.20
2017-10-18T20:02:50.372Z,31.80
2017-10-18T20:05:16.494Z,32.83
2017-10-18T20:07:42.604Z,30.13
2017-10-18T20:10:08.704Z,33.90
2017-10-18T20:12:35.562Z,34.43
2017-10-18T20:15:01.720Z,36.90
2017-10-18T20:17:27.827Z,37.50
2017-10-18T20:19:54.096Z,39.53
2017-10-18T20:22:20.318Z,39.27
2017-10-18T20:24:47.153Z,30.20
2017-10-18T20:27:14.057Z,31.33
2017-10-18T20:29:40.211Z,30.20
2017-10-18T20:32:06.347Z,28.60
2017-10-18T20:34:32.466Z,27.90
2017-10-18T20:36:59.327Z,29.20
2017-10-18T20:39:27.752Z,27.10
2017-10-18T20:41:54.691Z,26.20
2017-10-18T20:44:20.790Z,27.43
2017-10-18T20:46:46.894Z,27.30
2017-10-18T20:49:12.998Z,27.13
2017-10-18T20:51:39.080Z,27.67
2017-10-18T20:54:05.207Z,27.50
2017-10-18T20:56:31.301Z,28.13
2017-10-18T20:58:57.407Z,28.47
2017-10-18T21:01:24.273Z,28.70
2017-10-18T21:03:50.429Z,28.00
2017-10-18T21:06:16.514Z,28.67
2017-10-18T21:08:42.621Z,27.00
2017-10-18T21:11:08.768Z,27.63
2017-10-18T21:13:34.849Z,28.50
2017-10-18T21:16:01.718Z,28.67
2017-10-18T21:18:27.817Z,29.17
2017-10-18T21:20:53.953Z,28.60
2017-10-18T21:23:20.102Z,27.43
2017-10-18T21:25:46.217Z,28.00
2017-10-18T21:28:12.302Z,28.40
2017-10-18T21:30:39.198Z,29.83
2017-10-18T21:33:05.303Z,28.97
2017-10-18T21:35:31.383Z,30.07
2017-10-18T21:37:57.506Z,27.90
2017-10-18T21:40:23.626Z,28.77
2017-10-18T21:42:49.705Z,29.80
2017-10-18T21:45:15.965Z,28.00
2017-10-18T21:47:42.040Z,29.70
2017-10-18T21:50:08.099Z,29.00
2017-10-18T21:52:34.252Z,29.10
2017-10-18T21:55:00.355Z,42.87
2017-10-18T21:57:26.470Z,36.73
2017-10-18T21:59:53.355Z,32.93
2017-10-18T22:02:19.446Z,28.50
2017-10-18T22:04:45.538Z,30.87
2017-10-18T22:07:11.641Z,36.67
2017-10-18T22:09:38.474Z,35.87
2017-10-18T22:12:04.574Z,28.43
2017-10-18T22:14:30.711Z,27.40
2017-10-18T22:16:56.826Z,28.87
2017-10-18T22:19:22.938Z,27.00
2017-10-18T22:21:49.778Z,27.57
2017-10-18T22:24:15.977Z,28.43
2017-10-18T22:26:42.058Z,30.07
2017-10-18T22:29:08.211Z,27.90
2017-10-18T22:31:34.389Z,29.60
2017-10-18T22:34:00.467Z,30.90
2017-10-18T22:36:26.724Z,31.07
2017-10-18T22:38:53.663Z,30.40
2017-10-18T22:41:19.861Z,32.20
2017-10-18T22:43:45.993Z,31.30
2017-10-18T22:46:12.074Z,33.90
2017-10-18T22:48:38.156Z,36.87
2017-10-18T22:51:05.007Z,30.97
2017-10-18T22:53:31.837Z,31.30
2017-10-18T22:55:58.208Z,31.07
2017-10-18T22:58:25.103Z,30.47
2017-10-18T23:00:51.194Z,30.60
2017-10-18T23:03:18.018Z,29.90
2017-10-18T23:05:44.664Z,30.63
2017-10-18T23:08:10.767Z,31.30
2017-10-18T23:10:36.841Z,32.73
2017-10-18T23:13:02.974Z,30.43
2017-10-18T23:15:29.056Z,33.30
2017-10-18T23:17:55.573Z,31.90
2017-10-18T23:20:22.438Z,31.53
2017-10-18T23:22:49.265Z,30.53
2017-10-18T23:25:15.349Z,32.50
2017-10-18T23:27:42.216Z,31.10
2017-10-18T23:30:08.302Z,31.17
2017-10-18T23:32:34.449Z,30.30
2017-10-18T23:35:00.546Z,32.07
2017-10-18T23:37:26.763Z,31.47
2017-10-18T23:39:52.989Z,33.30
2017-10-18T23:42:19.858Z,33.27
2017-10-18T23:44:45.933Z,34.57
2017-10-18T23:47:12.054Z,34.50
2017-10-18T23:49:38.158Z,34.00
2017-10-18T23:52:05.033Z,33.90
2017-10-18T23:54:31.177Z,35.73
2017-10-18T23:56:57.320Z,34.20
2017-10-18T23:59:23.487Z,36.13
